Terminal Aerodrome Forecast
Issued by NWS Oklahoma City, OK

Home | Current Version | Previous Version | Text Only | Print | Product List | Glossary On
Versions: 1 2 3 4 5 6 7 8 9 10 11 12 13 14 15 16 17 18 19 20 21 22 23 24 25 26
649
FTUS44 KOUN 240528
TAFOUN
TAF
KOUN 240528Z 2406/2506 16008KT P6SM OVC015
     FM241000 18013KT P6SM OVC009
     FM241600 17015G23KT P6SM BKN020 PROB30 2423/2505 3SM TSRA BR
      OVC015CB=

USA.gov is the U.S. government's official web portal to all federal, state and local government web resources and services.